createdAt,value
2019-02-20T00:01:36.916Z,95277.59
2019-02-20T00:04:05.875Z,95279.16
2019-02-20T00:06:34.550Z,95280.72
2019-02-20T00:09:04.706Z,95284.41
2019-02-20T00:11:33.289Z,95277.43
2019-02-20T00:14:01.878Z,95277.94
2019-02-20T00:16:30.486Z,95281.70
2019-02-20T00:18:59.094Z,95290.02
2019-02-20T00:21:28.000Z,95285.44
2019-02-20T00:23:56.591Z,95286.71
2019-02-20T00:26:25.161Z,95278.45
2019-02-20T00:28:53.770Z,95278.88
2019-02-20T00:31:22.425Z,95277.14
2019-02-20T00:33:51.035Z,95281.62
2019-02-20T00:36:20.256Z,95287.57
2019-02-20T00:38:48.918Z,95282.49
2019-02-20T00:41:17.512Z,95275.13
2019-02-20T00:43:50.857Z,95282.53
2019-02-20T00:46:29.078Z,95273.55
2019-02-20T00:49:20.461Z,95286.23
2019-02-20T00:52:05.162Z,95283.23
2019-02-20T00:54:33.900Z,95281.45
2019-02-20T00:57:02.747Z,95282.52
2019-02-20T00:59:31.847Z,95283.80
2019-02-20T01:02:00.556Z,95277.91
2019-02-20T01:04:29.600Z,95277.84
2019-02-20T01:06:58.211Z,95280.42
2019-02-20T01:09:26.991Z,95276.09
2019-02-20T01:11:55.748Z,95279.45
2019-02-20T01:14:24.565Z,95286.55
2019-02-20T01:16:53.287Z,95285.13
2019-02-20T01:19:21.860Z,95283.77
2019-02-20T01:21:50.654Z,95285.61
2019-02-20T01:24:19.367Z,95287.99
2019-02-20T01:26:47.977Z,95282.49
2019-02-20T01:29:16.563Z,95294.58
2019-02-20T01:31:45.458Z,95289.83
2019-02-20T01:34:14.108Z,95287.72
2019-02-20T01:36:42.685Z,95288.70
2019-02-20T01:39:11.356Z,95298.34
2019-02-20T01:41:39.914Z,95288.82
2019-02-20T01:44:08.499Z,95288.67
2019-02-20T01:46:37.116Z,95287.38
2019-02-20T01:49:05.774Z,95279.12
2019-02-20T01:51:34.369Z,95281.39
2019-02-20T01:54:03.171Z,95277.27
2019-02-20T01:56:31.913Z,95272.50
2019-02-20T01:59:00.566Z,95269.99
2019-02-20T02:01:29.448Z,95266.47
2019-02-20T02:03:58.207Z,95260.72
2019-02-20T02:06:26.785Z,95261.84
2019-02-20T02:08:55.360Z,95258.59
2019-02-20T02:11:24.446Z,95258.49
2019-02-20T02:13:53.030Z,95258.85
2019-02-20T02:16:21.614Z,95262.05
2019-02-20T02:18:50.199Z,95263.50
2019-02-20T02:21:18.788Z,95265.61
2019-02-20T02:23:47.741Z,95259.84
2019-02-20T02:26:16.490Z,95259.69
2019-02-20T02:28:45.371Z,95258.30
2019-02-20T02:31:14.064Z,95263.57
2019-02-20T02:33:42.721Z,95263.75
2019-02-20T02:36:11.513Z,95260.47
2019-02-20T02:38:40.106Z,95266.27
2019-02-20T02:41:09.028Z,95274.45
2019-02-20T02:43:37.831Z,95277.94
2019-02-20T02:46:06.711Z,95278.22
2019-02-20T02:48:35.391Z,95283.77
2019-02-20T02:51:04.109Z,95272.27
2019-02-20T02:53:32.679Z,95278.80
2019-02-20T02:56:01.264Z,95271.91
2019-02-20T02:58:29.846Z,95272.38
2019-02-20T03:00:58.472Z,95274.11
2019-02-20T03:03:27.049Z,95274.67
2019-02-20T03:05:55.892Z,95276.85
2019-02-20T03:08:24.511Z,95274.44
2019-02-20T03:10:53.100Z,95267.67
2019-02-20T03:13:21.737Z,95268.93
2019-02-20T03:15:50.528Z,95270.37
2019-02-20T03:18:19.115Z,95267.31
2019-02-20T03:20:47.693Z,95270.44
2019-02-20T03:23:16.285Z,95265.14
2019-02-20T03:25:44.866Z,95267.85
2019-02-20T03:28:13.483Z,95268.73
2019-02-20T03:30:42.093Z,95269.06
2019-02-20T03:33:10.670Z,95272.56
2019-02-20T03:35:40.293Z,95269.70
2019-02-20T03:38:08.971Z,95267.55
2019-02-20T03:40:37.807Z,95267.28
2019-02-20T03:43:06.404Z,95276.13
2019-02-20T03:45:35.236Z,95269.17
2019-02-20T03:48:04.093Z,95271.55
2019-02-20T03:50:33.144Z,95269.98
2019-02-20T03:53:01.983Z,95275.29
2019-02-20T03:55:30.910Z,95274.45
2019-02-20T03:57:59.523Z,95269.11
2019-02-20T04:00:28.114Z,95270.22
2019-02-20T04:02:56.747Z,95276.38
2019-02-20T04:05:25.433Z,95269.66
2019-02-20T04:07:54.463Z,95263.18
2019-02-20T04:10:23.310Z,95270.73
2019-02-20T04:12:52.133Z,95279.16
2019-02-20T04:15:20.746Z,95274.45
2019-02-20T04:17:49.389Z,95280.55
2019-02-20T04:20:18.042Z,95267.95
2019-02-20T04:22:46.915Z,95272.09
2019-02-20T04:25:15.709Z,95280.45
2019-02-20T04:27:44.330Z,95277.64
2019-02-20T04:30:13.236Z,95276.79
2019-02-20T04:32:42.383Z,95283.96
2019-02-20T04:35:11.649Z,95278.65
2019-02-20T04:37:40.499Z,95283.34
2019-02-20T04:40:09.133Z,95287.70
2019-02-20T04:42:37.862Z,95285.41
2019-02-20T04:45:06.856Z,95288.24
2019-02-20T04:47:35.532Z,95279.95
2019-02-20T04:50:04.152Z,95292.25
2019-02-20T04:52:32.732Z,95284.34
2019-02-20T04:55:02.034Z,95295.09
2019-02-20T04:57:30.924Z,95288.03
2019-02-20T04:59:59.727Z,95293.92
2019-02-20T05:02:28.547Z,95282.33
2019-02-20T05:04:57.249Z,95283.22
2019-02-20T05:07:25.865Z,95282.45
2019-02-20T05:09:54.683Z,95288.52
2019-02-20T05:12:23.769Z,95293.18
2019-02-20T05:14:53.097Z,95294.00
2019-02-20T05:17:21.710Z,95296.20
2019-02-20T05:19:50.371Z,95296.06
2019-02-20T05:22:19.200Z,95301.77
2019-02-20T05:24:48.505Z,95297.27
2019-02-20T05:27:17.087Z,95290.41
2019-02-20T05:29:45.939Z,95293.45
2019-02-20T05:32:14.624Z,95299.83
2019-02-20T05:34:43.259Z,95297.83
2019-02-20T05:37:11.930Z,95297.94
2019-02-20T05:39:40.951Z,95292.00
2019-02-20T05:42:09.539Z,95292.17
2019-02-20T05:44:38.254Z,95294.07
2019-02-20T05:47:06.825Z,95293.84
2019-02-20T05:49:35.490Z,95295.64
2019-02-20T05:52:04.074Z,95296.38
2019-02-20T05:54:35.006Z,95301.77
2019-02-20T05:57:03.333Z,95300.61
2019-02-20T05:59:32.238Z,95296.66
2019-02-20T06:02:01.116Z,95299.19
2019-02-20T06:04:29.702Z,95306.30
2019-02-20T06:06:58.324Z,95301.07
2019-02-20T06:09:27.227Z,95306.11
2019-02-20T06:11:55.798Z,95319.17
2019-02-20T06:14:24.529Z,95320.64
2019-02-20T06:16:53.267Z,95322.31
2019-02-20T06:19:21.978Z,95322.74
2019-02-20T06:21:50.853Z,95322.80
2019-02-20T06:24:19.906Z,95322.81
2019-02-20T06:26:48.540Z,95324.89
2019-02-20T06:29:17.247Z,95333.17
2019-02-20T06:31:45.842Z,95334.11
2019-02-20T06:34:14.421Z,95329.16
2019-02-20T06:36:43.061Z,95328.57
2019-02-20T06:39:11.780Z,95329.50
2019-02-20T06:41:40.610Z,95326.48
2019-02-20T06:44:09.199Z,95324.43
2019-02-20T06:46:38.043Z,95322.66
2019-02-20T06:49:06.753Z,95323.14
2019-02-20T06:51:35.334Z,95331.26
2019-02-20T06:54:04.169Z,95336.97
2019-02-20T06:56:33.259Z,95337.78
2019-02-20T06:59:01.905Z,95346.31
2019-02-20T07:01:30.477Z,95346.33
2019-02-20T07:03:59.061Z,95348.95
2019-02-20T07:06:53.428Z,95354.55
2019-02-20T07:10:09.822Z,95354.77
2019-02-20T07:12:52.618Z,95357.55
2019-02-20T07:16:09.548Z,95363.94
2019-02-20T07:19:08.374Z,95364.48
2019-02-20T07:21:45.919Z,95369.92
2019-02-20T07:24:23.323Z,95369.07
2019-02-20T07:27:02.796Z,95370.88
2019-02-20T07:29:55.000Z,95382.64
2019-02-20T07:32:23.618Z,95381.25
2019-02-20T07:34:52.205Z,95387.91
2019-02-20T07:37:20.841Z,95393.61
2019-02-20T07:39:49.436Z,95390.84
2019-02-20T07:42:18.255Z,95388.78
2019-02-20T07:44:46.864Z,95390.73
2019-02-20T07:47:15.686Z,95402.48
2019-02-20T07:49:44.292Z,95405.41
2019-02-20T07:52:13.038Z,95419.81
2019-02-20T07:54:41.871Z,95417.73
2019-02-20T07:57:10.712Z,95420.70
2019-02-20T07:59:39.327Z,95426.72
2019-02-20T08:02:07.955Z,95417.30
2019-02-20T08:04:36.706Z,95421.13
2019-02-20T08:07:05.413Z,95429.39
2019-02-20T08:09:35.188Z,95428.72
2019-02-20T08:12:03.867Z,95436.19
2019-02-20T08:14:32.554Z,95440.73
2019-02-20T08:17:01.157Z,95433.48
2019-02-20T08:19:30.087Z,95437.14
2019-02-20T08:21:58.821Z,95449.15
2019-02-20T08:24:27.395Z,95456.27
2019-02-20T08:26:55.989Z,95447.95
2019-02-20T08:29:24.581Z,95453.38
2019-02-20T08:31:54.005Z,95455.41
2019-02-20T08:34:22.711Z,95452.34
2019-02-20T08:36:51.389Z,95453.44
2019-02-20T08:39:19.976Z,95459.41
2019-02-20T08:41:48.613Z,95462.69
2019-02-20T08:44:17.293Z,95466.06
2019-02-20T08:46:45.881Z,95459.92
2019-02-20T08:49:14.526Z,95470.87
2019-02-20T08:51:43.132Z,95464.04
2019-02-20T08:54:11.948Z,95471.46
2019-02-20T08:56:40.533Z,95479.12
2019-02-20T08:59:09.236Z,95479.12
2019-02-20T09:01:37.853Z,95471.93
2019-02-20T09:04:06.468Z,95481.17
2019-02-20T09:06:35.067Z,95479.80
2019-02-20T09:09:04.899Z,95478.17
2019-02-20T09:11:33.516Z,95481.37
2019-02-20T09:14:02.096Z,95488.63
2019-02-20T09:16:30.791Z,95488.16
2019-02-20T09:18:59.417Z,95487.22
2019-02-20T09:21:28.037Z,95491.36
2019-02-20T09:23:56.911Z,95491.97
2019-02-20T09:26:25.489Z,95487.38
2019-02-20T09:28:54.063Z,95486.64
2019-02-20T09:31:22.958Z,95497.72
2019-02-20T09:33:51.624Z,95504.87
2019-02-20T09:36:20.246Z,95504.87
2019-02-20T09:38:48.872Z,95502.84
2019-02-20T09:41:17.939Z,95510.94
2019-02-20T09:43:48.053Z,95509.55
2019-02-20T09:46:16.780Z,95500.77
2019-02-20T09:48:45.458Z,95500.12
2019-02-20T09:51:14.127Z,95494.16
2019-02-20T09:53:42.775Z,95501.27
2019-02-20T09:56:11.389Z,95510.83
2019-02-20T09:58:39.958Z,95510.83
2019-02-20T10:01:08.571Z,95507.23
2019-02-20T10:03:37.238Z,95514.73
2019-02-20T10:06:06.096Z,95514.73
2019-02-20T10:08:34.787Z,95523.14
2019-02-20T10:11:03.383Z,95523.14
2019-02-20T10:13:32.242Z,95531.33
2019-02-20T10:16:00.846Z,95531.36
2019-02-20T10:18:29.938Z,95524.61
2019-02-20T10:20:58.558Z,95524.61
2019-02-20T10:23:27.189Z,95524.12
2019-02-20T10:26:00.781Z,95533.58
2019-02-20T10:28:26.340Z,95538.35
2019-02-20T10:30:56.028Z,95533.98
2019-02-20T10:33:24.929Z,95533.98
2019-02-20T10:35:53.507Z,95535.45
2019-02-20T10:38:22.157Z,95539.09
2019-02-20T10:40:50.777Z,95540.13
2019-02-20T10:43:19.431Z,95551.36
2019-02-20T10:45:48.381Z,95549.39
2019-02-20T10:48:16.982Z,95549.39
2019-02-20T10:50:45.625Z,95548.55
2019-02-20T10:53:14.280Z,95545.41
2019-02-20T10:55:42.978Z,95549.87
2019-02-20T10:58:11.707Z,95548.39
2019-02-20T11:00:40.374Z,95548.01
2019-02-20T11:03:09.025Z,95551.72
2019-02-20T11:05:37.620Z,95544.88
2019-02-20T11:08:06.359Z,95539.17
2019-02-20T11:10:35.311Z,95539.17
2019-02-20T11:13:04.092Z,95556.42
2019-02-20T11:15:32.710Z,95551.44
2019-02-20T11:18:01.657Z,95547.61
2019-02-20T11:20:30.281Z,95547.80
2019-02-20T11:22:58.870Z,95546.75
2019-02-20T11:25:27.556Z,95551.05
2019-02-20T11:27:56.162Z,95548.00
2019-02-20T11:30:24.761Z,95549.02
2019-02-20T11:32:53.441Z,95529.45
2019-02-20T11:35:22.302Z,95547.38
2019-02-20T11:37:50.986Z,95549.98
2019-02-20T11:40:19.610Z,95544.83
2019-02-20T11:42:48.440Z,95545.63
2019-02-20T11:45:17.049Z,95546.77
2019-02-20T11:47:45.651Z,95543.04
2019-02-20T11:50:14.634Z,95542.11
2019-02-20T11:52:43.673Z,95544.79
2019-02-20T11:55:12.369Z,95535.33
2019-02-20T11:57:41.143Z,95534.61
2019-02-20T12:00:10.867Z,95527.34
2019-02-20T12:02:39.623Z,95531.63
2019-02-20T12:05:08.989Z,95521.23
2019-02-20T12:07:37.571Z,95531.42
2019-02-20T12:10:06.810Z,95530.55
2019-02-20T12:12:35.574Z,95529.24
2019-02-20T12:15:04.381Z,95529.48
2019-02-20T12:17:33.001Z,95532.17
2019-02-20T12:20:01.587Z,95527.74
2019-02-20T12:22:30.204Z,95522.16
2019-02-20T12:24:59.341Z,95522.33
2019-02-20T12:27:28.179Z,95521.92
2019-02-20T12:29:56.841Z,95521.69
2019-02-20T12:32:25.648Z,95521.70
2019-02-20T12:34:54.506Z,95518.05
2019-02-20T12:37:25.010Z,95534.84
2019-02-20T12:39:53.556Z,95537.30
2019-02-20T12:42:22.253Z,95537.59
2019-02-20T12:44:50.899Z,95538.47
2019-02-20T12:47:20.052Z,95540.89
2019-02-20T12:49:48.691Z,95542.58
2019-02-20T12:52:17.434Z,95543.80
2019-02-20T12:54:46.013Z,95545.59
2019-02-20T12:57:14.848Z,95538.34
2019-02-20T12:59:43.457Z,95538.20
2019-02-20T13:02:12.548Z,95535.21
2019-02-20T13:04:41.112Z,95529.91
2019-02-20T13:07:09.928Z,95528.31
2019-02-20T13:09:38.730Z,95530.04
2019-02-20T13:12:07.415Z,95528.41
2019-02-20T13:14:36.120Z,95526.14
2019-02-20T13:17:04.908Z,95526.45
2019-02-20T13:19:33.737Z,95526.13
2019-02-20T13:22:02.584Z,95523.93
2019-02-20T13:24:32.043Z,95522.22
2019-02-20T13:27:07.592Z,95521.65
2019-02-20T13:29:32.213Z,95522.27
2019-02-20T13:32:00.833Z,95527.52
2019-02-20T13:34:29.496Z,95516.60
2019-02-20T13:36:58.541Z,95526.40
2019-02-20T13:39:28.190Z,95516.95
2019-02-20T13:41:56.960Z,95517.21
2019-02-20T13:44:25.827Z,95522.16
2019-02-20T13:46:54.913Z,95526.28
2019-02-20T13:49:24.199Z,95520.77
2019-02-20T13:51:52.806Z,95523.73
2019-02-20T13:54:21.645Z,95525.37
2019-02-20T13:56:50.558Z,95525.32
2019-02-20T13:59:19.228Z,95525.38
2019-02-20T14:01:47.925Z,95522.96
2019-02-20T14:04:16.816Z,95518.20
2019-02-20T14:06:45.522Z,95518.02
2019-02-20T14:09:15.230Z,95514.52
2019-02-20T14:11:44.002Z,95513.50
2019-02-20T14:14:12.772Z,95512.71
2019-02-20T14:16:41.469Z,95512.16
2019-02-20T14:19:10.671Z,95513.58
2019-02-20T14:21:39.257Z,95514.16
2019-02-20T14:24:07.846Z,95516.45
2019-02-20T14:26:36.516Z,95510.95
2019-02-20T14:29:05.313Z,95513.58
2019-02-20T14:31:33.940Z,95509.70
2019-02-20T14:34:02.615Z,95510.89
2019-02-20T14:36:31.682Z,95514.88
2019-02-20T14:39:00.466Z,95518.66
2019-02-20T14:41:29.052Z,95512.73
2019-02-20T14:43:57.712Z,95508.43
2019-02-20T14:46:26.438Z,95512.18
2019-02-20T14:48:55.285Z,95516.66
2019-02-20T14:51:23.893Z,95511.87
2019-02-20T14:53:54.227Z,95518.64
2019-02-20T14:56:22.975Z,95516.73
2019-02-20T14:58:51.653Z,95522.08
2019-02-20T15:01:21.527Z,95513.62
2019-02-20T15:03:50.181Z,95515.59
2019-02-20T15:06:19.845Z,95516.17
2019-02-20T15:08:48.625Z,95520.67
2019-02-20T15:11:17.364Z,95513.08
2019-02-20T15:13:46.225Z,95525.95
2019-02-20T15:16:14.855Z,95523.89
2019-02-20T15:18:43.408Z,95517.72
2019-02-20T15:21:12.329Z,95518.22
2019-02-20T15:23:41.449Z,95522.38
2019-02-20T15:26:10.347Z,95525.60
2019-02-20T15:28:39.011Z,95527.68
2019-02-20T15:31:07.682Z,95526.02
2019-02-20T15:33:36.296Z,95529.08
2019-02-20T15:36:05.430Z,95531.48
2019-02-20T15:38:34.178Z,95540.45
2019-02-20T15:41:03.480Z,95534.28
2019-02-20T15:43:32.079Z,95544.68
2019-02-20T15:46:00.839Z,95544.88
2019-02-20T15:48:29.476Z,95538.84
2019-02-20T15:50:58.096Z,95537.36
2019-02-20T15:53:26.785Z,95534.77
2019-02-20T15:55:55.472Z,95532.94
2019-02-20T15:58:24.725Z,95531.28
2019-02-20T16:00:53.460Z,95526.33
2019-02-20T16:03:22.146Z,95533.64
2019-02-20T16:05:50.838Z,95535.04
2019-02-20T16:08:19.552Z,95529.91
2019-02-20T16:10:48.318Z,95538.17
2019-02-20T16:13:17.339Z,95542.17
2019-02-20T16:15:46.123Z,95542.17
2019-02-20T16:18:14.700Z,95546.12
2019-02-20T16:20:43.412Z,95546.12
2019-02-20T16:23:12.039Z,95542.22
2019-02-20T16:25:40.663Z,95547.33
2019-02-20T16:28:09.340Z,95548.96
2019-02-20T16:30:38.212Z,95549.59
2019-02-20T16:33:07.060Z,95549.59
2019-02-20T16:35:35.807Z,95549.41
2019-02-20T16:38:04.385Z,95551.69
2019-02-20T16:40:33.047Z,95561.97
2019-02-20T16:43:03.803Z,95561.97
2019-02-20T16:45:32.306Z,95564.16
2019-02-20T16:48:00.975Z,95565.13
2019-02-20T16:50:29.657Z,95592.31
2019-02-20T16:52:58.239Z,95564.77
2019-02-20T16:55:26.949Z,95569.39
2019-02-20T16:57:57.002Z,95575.73
2019-02-20T17:00:25.854Z,95570.16
2019-02-20T17:02:55.009Z,95570.16
2019-02-20T17:05:23.744Z,95567.27
2019-02-20T17:07:52.398Z,95564.59
2019-02-20T17:10:21.013Z,95579.47
2019-02-20T17:12:50.168Z,95579.47
2019-02-20T17:15:18.868Z,95582.41
2019-02-20T17:17:47.791Z,95587.45
2019-02-20T17:20:17.759Z,95580.50
2019-02-20T17:22:46.913Z,95589.80
2019-02-20T17:25:16.514Z,95589.80
2019-02-20T17:27:45.189Z,95600.50
2019-02-20T17:30:14.302Z,95595.89
2019-02-20T17:32:43.467Z,95603.05
2019-02-20T17:35:12.343Z,95597.69
2019-02-20T17:37:41.572Z,95601.11
2019-02-20T17:40:10.369Z,95600.33
2019-02-20T17:42:39.056Z,95598.84
2019-02-20T17:45:09.154Z,95598.84
2019-02-20T17:47:38.133Z,95603.00
2019-02-20T17:50:10.059Z,95603.00
2019-02-20T17:52:38.831Z,95606.10
2019-02-20T17:55:08.098Z,95611.76
2019-02-20T17:57:36.769Z,95604.39
2019-02-20T18:00:08.204Z,95604.64
2019-02-20T18:02:36.955Z,95606.64
2019-02-20T18:05:05.849Z,95610.06
2019-02-20T18:07:34.966Z,95609.95
2019-02-20T18:10:03.724Z,95606.58
2019-02-20T18:12:32.608Z,95611.82
2019-02-20T18:15:01.286Z,95617.42
2019-02-20T18:17:30.131Z,95609.20
2019-02-20T18:19:58.729Z,95612.86
2019-02-20T18:22:27.381Z,95611.75
2019-02-20T18:24:56.193Z,95609.85
2019-02-20T18:27:25.063Z,95611.77
2019-02-20T18:29:53.823Z,95614.38
2019-02-20T18:32:22.441Z,95621.28
2019-02-20T18:34:51.115Z,95620.30
2019-02-20T18:37:19.939Z,95621.55
2019-02-20T18:39:48.626Z,95631.45
2019-02-20T18:42:17.220Z,95633.22
2019-02-20T18:44:45.922Z,95630.47
2019-02-20T18:47:14.562Z,95630.95
2019-02-20T18:49:43.123Z,95639.14
2019-02-20T18:52:11.834Z,95635.88
2019-02-20T18:54:40.448Z,95635.29
2019-02-20T18:57:09.603Z,95648.99
2019-02-20T18:59:38.300Z,95646.69
2019-02-20T19:02:07.345Z,95644.19
2019-02-20T19:04:35.998Z,95649.94
2019-02-20T19:07:14.271Z,95643.83
2019-02-20T19:09:45.625Z,95642.34
2019-02-20T19:12:56.602Z,95643.36
2019-02-20T19:15:52.530Z,95645.70
2019-02-20T19:18:59.968Z,95651.86
2019-02-20T19:21:31.899Z,95640.19
2019-02-20T19:24:24.386Z,95645.08
2019-02-20T19:27:13.928Z,95642.13
2019-02-20T19:30:32.794Z,95642.97
2019-02-20T19:33:42.323Z,95645.77
2019-02-20T19:36:34.937Z,95649.86
2019-02-20T19:39:13.009Z,95648.50
2019-02-20T19:42:26.059Z,95648.17
2019-02-20T19:45:13.787Z,95645.39
2019-02-20T19:48:07.796Z,95647.23
2019-02-20T19:50:51.029Z,95647.50
2019-02-20T19:53:51.804Z,95652.75
2019-02-20T19:57:04.951Z,95653.89
2019-02-20T20:00:21.140Z,95652.25
2019-02-20T20:03:22.787Z,95655.33
2019-02-20T20:06:42.403Z,95665.07
2019-02-20T20:09:33.795Z,95659.23
2019-02-20T20:12:33.469Z,95655.94
2019-02-20T20:15:21.624Z,95659.73
2019-02-20T20:18:31.565Z,95654.73
2019-02-20T20:21:29.690Z,95654.98
2019-02-20T20:24:18.298Z,95654.94
2019-02-20T20:27:13.073Z,95654.16
2019-02-20T20:30:38.345Z,95653.79
2019-02-20T20:33:49.633Z,95658.01
2019-02-20T20:36:55.129Z,95656.78
2019-02-20T20:40:01.396Z,95654.05
2019-02-20T20:43:00.996Z,95650.81
2019-02-20T20:46:25.204Z,95652.25
2019-02-20T20:49:17.188Z,95652.25
2019-02-20T20:52:32.604Z,95643.26
2019-02-20T20:55:30.563Z,95643.44
2019-02-20T20:58:40.995Z,95646.97
2019-02-20T21:01:39.171Z,95647.08
2019-02-20T21:04:37.086Z,95642.32
2019-02-20T21:07:38.180Z,95647.56
2019-02-20T21:10:46.776Z,95645.64
2019-02-20T21:14:08.851Z,95646.63
2019-02-20T21:17:30.178Z,95647.05
2019-02-20T21:20:36.227Z,95652.12
2019-02-20T21:23:49.343Z,95649.37
2019-02-20T21:26:34.245Z,95651.34
2019-02-20T21:29:31.083Z,95650.63
2019-02-20T21:32:31.839Z,95647.22
2019-02-20T21:35:06.797Z,95646.80
2019-02-20T21:38:24.709Z,95648.49
2019-02-20T21:41:44.125Z,95653.45
2019-02-20T21:45:03.138Z,95651.64
2019-02-20T21:48:28.918Z,95654.51
2019-02-20T21:51:17.329Z,95651.37
2019-02-20T21:54:17.760Z,95651.08
2019-02-20T21:56:54.091Z,95651.27
2019-02-20T22:00:01.236Z,95641.87
2019-02-20T22:03:08.401Z,95643.02
2019-02-20T22:06:03.885Z,95637.89
2019-02-20T22:09:11.011Z,95639.72
2019-02-20T22:16:01.864Z,95644.56
2019-02-20T22:19:08.992Z,95648.05
2019-02-20T22:22:05.769Z,95646.88
2019-02-20T22:25:02.989Z,95655.32
2019-02-20T22:27:57.637Z,95657.80
2019-02-20T22:30:55.508Z,95667.60
2019-02-20T22:34:02.689Z,95665.20
2019-02-20T22:37:02.952Z,95663.03
2019-02-20T22:39:54.955Z,95661.81
2019-02-20T22:42:55.505Z,95655.84
2019-02-20T22:46:02.630Z,95652.13
2019-02-20T22:49:09.739Z,95658.28
2019-02-20T22:52:00.328Z,95653.78
2019-02-20T22:54:54.119Z,95656.59
2019-02-20T22:58:19.065Z,95651.82
2019-02-20T23:04:35.338Z,95651.92
2019-02-20T23:07:42.548Z,95650.91
2019-02-20T23:10:49.658Z,95655.33
2019-02-20T23:16:18.419Z,95661.04
2019-02-20T23:19:06.233Z,95662.06
2019-02-20T23:21:34.853Z,95672.54
2019-02-20T23:24:03.486Z,95662.58
2019-02-20T23:26:32.075Z,95664.66
2019-02-20T23:29:00.678Z,95664.37
2019-02-20T23:31:29.273Z,95672.25
2019-02-20T23:33:57.851Z,95669.03
2019-02-20T23:36:26.419Z,95665.41
2019-02-20T23:38:55.007Z,95675.84
2019-02-20T23:41:24.051Z,95670.64
2019-02-20T23:43:52.618Z,95667.71
2019-02-20T23:46:21.220Z,95668.42
2019-02-20T23:48:49.792Z,95677.80
2019-02-20T23:51:18.372Z,95673.31
2019-02-20T23:53:47.413Z,95668.77
2019-02-20T23:56:15.997Z,95666.72
2019-02-20T23:58:44.587Z,95667.56
